Smyrna, GA

11:43 AM EDT on October 01, 2016 (GMT -0400)
McDonough 2nd location | | Change Station

Elev 823 ft 33.82 °N, 84.48 °W | Updated 4 seconds ago

Clear
Clear
70.2 °F
Feels Like 77 °F
N
0.0
Wind Variable Wind from SSW
Gusts 0.0 mph

Today
High -- | Low -- °F
--% Chance of Precip.
Yesterday
High -- | Low -- °F
Precip. -- in
Pressure 30.12 in
Visibility 10.0 miles
Clouds Clear
Heat Index 77 °F
Dew Point 52 °F
Humidity 52%
Rainfall 0.00 in
Snow Depth Not available.
7:32 AM 7:21 PM
New Moon, 0% visible
METAR KMGE 011458Z 00000KT 10SM CLR 20/10 A3013 RMK AO2A SLP199 T02040104 52016 $
Pressure 30.12 in
Visibility 10.0 miles
Clouds Clear
Heat Index 77 °F
Dew Point 52 °F
Humidity 52%
Rainfall 0.00 in
Snow Depth Not available.
7:32 AM 7:21 PM
New Moon, 0% visible
METAR KMGE 011458Z 00000KT 10SM CLR 20/10 A3013 RMK AO2A SLP199 T02040104 52016 $

10-Day Weather Forecast

Almanac

Astronomy

Oct. 01, 2016 Rise Set
Actual Time
Civil Twilight
Nautical Twilight
Astronomical Twilight
Moon
Length of Visible Light
Length of Day
Tomorrow will be .
, % of the Moon is Illuminated

Today's Extremes

State Highs State Lows

Community

WunderPhotos

Upload Photos

1,942,957 photos uploaded!

WunderBlog® & News

Nearby

Air Quality

  Air Quality AQ Index Pollutant
Not available.

Snow Depth

Station Depth Elevation

Earthquake Activity

City Distance Mag. Time & Date
Minimum magnitude displayed is 2.5.

Coastal Water Temperatures

Place Temperature

Stations

Nearby Weather Stations

Station Location Temp. Windchill Dew Point Humidity Wind Precip. Elev Updated Type
                   

Watches & Warnings

There are currently no watches in effect.